메인 페이지
METAR-TAF:

METAR-TAF

공항 :

니아메, 니제르

위도: 13-29N, 경도: 002-10E, 고도: 223m

현재 날씨관측

예보는 28분 전, 10:00시(UTC)에 발표되었습니다.
9kt
온도 38°C
습도 7%
기압 1010 hPa
시정: 8000m

METAR: DRRN 301000Z 10009KT 8000 NSC 38/M04 Q1010 NOSIG

시각: 11:28 (10:28 UTC)

예보

예보는 5 시간 28분 전, 05:00시(UTC)에 발표되었습니다.
예보 대상 시간: 30일 06시부터 31일 12시까지 (UTC)
동북동8kt
시정: 8000m
확률 40% :
일시적
30일 08시부터 30일 12시까지 (UTC)
18kt
시정: 3000m
날린먼지

TAF: DRRN 300500Z 3006/3112 06008KT 8000 NSC PROB40 TEMPO 3008/3012 08018KT 3000 BLDU

4,000개 이상의 공항 관측 자료 및 예보 (METAR 및 TAF 보고).

지도상에서 검색 가능한 기상관측소가 노란 점과 빨간 점으로 표시되어 있습니다.

기상관측소 명을 보려면 표시 위로 마우스를 이동하세요.

날씨 관측과 예보를 보려면 클릭하세요.

지도 변경 : 확대하려면 엑스 표시가 있는 녹색 버튼, 축소하려면 빼기 표시가 있는 녹색 버튼, 다음 페이지의 지도를 보려면 녹색 화살표를 클릭하세요.


METAR-TAF: